createdAt,value
2023-02-02T00:01:24.402Z,102173.47
2023-02-02T00:03:51.589Z,102165.81
2023-02-02T00:06:20.240Z,102166.25
2023-02-02T00:08:47.477Z,102169.97
2023-02-02T00:11:17.694Z,102169.44
2023-02-02T00:13:44.800Z,102176.03
2023-02-02T00:16:26.592Z,102175.09
2023-02-02T00:18:54.492Z,102175.19
2023-02-02T00:21:21.075Z,102176.16
2023-02-02T00:23:47.686Z,102178.75
2023-02-02T00:26:14.284Z,102173.31
2023-02-02T00:28:43.107Z,102170.06
2023-02-02T00:31:10.197Z,102179.53
2023-02-02T00:33:36.855Z,102178.56
2023-02-02T00:36:04.139Z,102180.31
2023-02-02T00:38:31.801Z,102168.97
2023-02-02T00:40:58.481Z,102182.81
2023-02-02T00:43:25.196Z,102178.44
2023-02-02T00:45:51.969Z,102189.13
2023-02-02T00:48:18.623Z,102184.53
2023-02-02T00:50:45.728Z,102174.66
2023-02-02T00:53:12.267Z,102164.41
2023-02-02T00:55:38.806Z,102167.03
2023-02-02T00:58:05.380Z,102181.72
2023-02-02T01:00:31.969Z,102181.72
2023-02-02T01:03:04.296Z,102168.84
2023-02-02T01:05:32.079Z,102170.41
2023-02-02T01:07:58.705Z,102179.09
2023-02-02T01:10:25.439Z,102179.97
2023-02-02T01:12:52.318Z,102196.19
2023-02-02T01:15:19.023Z,102181.81
2023-02-02T01:17:45.634Z,102166.38
2023-02-02T01:20:20.522Z,102179.88
2023-02-02T01:22:47.671Z,102161.47
2023-02-02T01:25:14.690Z,102170.72
2023-02-02T01:27:43.740Z,102178.56
2023-02-02T01:30:11.247Z,102158.19
2023-02-02T01:32:37.850Z,102183.91
2023-02-02T01:35:04.882Z,102174.44
2023-02-02T01:37:33.625Z,102176.91
2023-02-02T01:40:01.669Z,102171.56
2023-02-02T01:42:28.516Z,102174.28
2023-02-02T01:45:04.255Z,102185.75
2023-02-02T01:47:36.424Z,102177.59
2023-02-02T01:50:04.365Z,102185.75
2023-02-02T01:52:34.113Z,102197.59
2023-02-02T01:55:08.313Z,102152.53
2023-02-02T01:57:42.136Z,102177.91
2023-02-02T02:00:14.578Z,102183.44
2023-02-02T02:02:48.301Z,102171.31
2023-02-02T02:05:24.027Z,102118.13
2023-02-02T02:07:53.520Z,102179.97
2023-02-02T02:10:20.132Z,102189.97
2023-02-02T02:12:48.658Z,102183.84
2023-02-02T02:15:33.896Z,102189.19
2023-02-02T02:18:09.279Z,102189.09
2023-02-02T02:21:42.500Z,102189.19
2023-02-02T02:25:02.471Z,102169.16
2023-02-02T02:28:12.145Z,102168.25
2023-02-02T02:30:44.326Z,102182.56
2023-02-02T02:33:39.822Z,102182.56
2023-02-02T02:36:15.212Z,102184.59
2023-02-02T02:38:51.776Z,102186.53
2023-02-02T02:41:25.842Z,102182.41
2023-02-02T02:44:01.297Z,102201.00
2023-02-02T02:46:28.445Z,102191.88
2023-02-02T02:48:58.071Z,102191.31
2023-02-02T02:51:43.607Z,102195.56
2023-02-02T02:54:21.211Z,102166.66
2023-02-02T02:57:06.605Z,102183.94
2023-02-02T02:59:41.382Z,102183.16
2023-02-02T03:02:38.213Z,102177.72
2023-02-02T03:05:31.585Z,102165.38
2023-02-02T03:08:16.307Z,102109.69
2023-02-02T03:10:45.768Z,102158.72
2023-02-02T03:13:14.143Z,102180.81
2023-02-02T03:15:42.455Z,102179.25
2023-02-02T03:18:09.255Z,102181.97
2023-02-02T03:20:36.358Z,102158.31
2023-02-02T03:23:06.001Z,102173.25
2023-02-02T03:25:34.998Z,102156.34
2023-02-02T03:28:01.849Z,102176.06
2023-02-02T03:30:28.593Z,102174.34
2023-02-02T03:32:55.337Z,102177.94
2023-02-02T03:35:22.077Z,102180.75
2023-02-02T03:37:51.532Z,102178.78
2023-02-02T03:40:18.817Z,102162.19
2023-02-02T03:42:45.419Z,102165.22
2023-02-02T03:45:12.001Z,102175.03
2023-02-02T03:47:38.626Z,102152.81
2023-02-02T03:50:06.461Z,102196.88
2023-02-02T03:52:32.963Z,102146.69
2023-02-02T03:54:59.767Z,102179.16
2023-02-02T03:57:26.530Z,102183.38
2023-02-02T03:59:53.217Z,102198.97
2023-02-02T04:02:21.944Z,102216.16
2023-02-02T04:04:51.294Z,102174.53
2023-02-02T04:07:17.852Z,102214.09
2023-02-02T04:09:46.676Z,102213.22
2023-02-02T04:12:15.794Z,102203.41
2023-02-02T04:14:44.809Z,102211.69
2023-02-02T04:17:11.629Z,102215.75
2023-02-02T04:19:38.256Z,102208.66
2023-02-02T04:22:04.939Z,102224.78
2023-02-02T04:24:31.540Z,102211.06
2023-02-02T04:26:58.143Z,102220.19
2023-02-02T04:29:27.184Z,102219.13
2023-02-02T04:31:54.371Z,102099.31
2023-02-02T04:34:21.059Z,102197.13
2023-02-02T04:36:47.675Z,102215.44
2023-02-02T04:39:14.374Z,102207.28
2023-02-02T04:41:40.926Z,102210.88
2023-02-02T04:44:14.473Z,102205.41
2023-02-02T04:46:41.156Z,102193.97
2023-02-02T04:49:10.334Z,102175.75
2023-02-02T04:51:40.371Z,102200.94
2023-02-02T04:54:07.566Z,102214.66
2023-02-02T04:56:34.197Z,102208.34
2023-02-02T04:59:00.831Z,102210.97
2023-02-02T05:01:27.577Z,102213.69
2023-02-02T05:03:54.601Z,102219.88
2023-02-02T05:06:21.203Z,102232.63
2023-02-02T05:08:49.025Z,102227.19
2023-02-02T05:11:18.498Z,102227.94
2023-02-02T05:13:49.227Z,102217.47
2023-02-02T05:16:15.970Z,102209.66
2023-02-02T05:18:43.389Z,102228.69
2023-02-02T05:21:12.404Z,102217.97
2023-02-02T05:23:41.295Z,102222.41
2023-02-02T05:26:18.699Z,102226.22
2023-02-02T05:28:45.673Z,102230.88
2023-02-02T05:31:12.414Z,102209.16
2023-02-02T05:33:41.208Z,102184.88
2023-02-02T05:36:08.294Z,102238.53
2023-02-02T05:38:35.451Z,102233.19
2023-02-02T05:41:04.992Z,102247.53
2023-02-02T05:43:32.919Z,102242.09
2023-02-02T05:45:59.865Z,102232.22
2023-02-02T05:48:26.703Z,102235.69
2023-02-02T05:51:05.951Z,102229.38
2023-02-02T05:53:33.001Z,102230.25
2023-02-02T05:56:01.900Z,102221.75
2023-02-02T05:58:28.529Z,102230.47
2023-02-02T06:00:56.702Z,102147.28
2023-02-02T06:03:23.858Z,102228.59
2023-02-02T06:05:50.671Z,102226.31
2023-02-02T06:08:19.729Z,102225.03
2023-02-02T06:10:46.331Z,102217.25
2023-02-02T06:13:15.449Z,102214.75
2023-02-02T06:15:43.298Z,102236.00
2023-02-02T06:18:10.248Z,102231.28
2023-02-02T06:20:37.194Z,102222.66
2023-02-02T06:23:04.702Z,102207.25
2023-02-02T06:25:31.300Z,102247.88
2023-02-02T06:27:59.192Z,102233.25
2023-02-02T06:30:28.466Z,102237.31
2023-02-02T06:32:55.139Z,102233.44
2023-02-02T06:35:21.918Z,102239.34
2023-02-02T06:37:49.245Z,102242.16
2023-02-02T06:40:16.072Z,102263.91
2023-02-02T06:42:44.997Z,102260.44
2023-02-02T06:45:11.793Z,102255.31
2023-02-02T06:47:38.443Z,102265.69
2023-02-02T06:50:05.206Z,102281.13
2023-02-02T06:52:31.745Z,102268.69
2023-02-02T06:54:58.276Z,102259.56
2023-02-02T06:57:24.842Z,102277.22
2023-02-02T06:59:52.311Z,102261.53
2023-02-02T07:02:19.126Z,102274.59
2023-02-02T07:04:46.109Z,102274.81
2023-02-02T07:07:12.761Z,102279.94
2023-02-02T07:09:41.648Z,102277.31
2023-02-02T07:12:10.602Z,102286.56
2023-02-02T07:14:37.970Z,102254.75
2023-02-02T07:17:04.644Z,102280.03
2023-02-02T07:19:33.651Z,102288.09
2023-02-02T07:22:00.312Z,102283.56
2023-02-02T07:24:27.738Z,102283.56
2023-02-02T07:26:54.449Z,102267.84
2023-02-02T07:29:21.036Z,102296.25
2023-02-02T07:31:47.651Z,102285.47
2023-02-02T07:34:14.245Z,102282.19
2023-02-02T07:36:40.869Z,102296.38
2023-02-02T07:39:07.844Z,102294.63
2023-02-02T07:41:36.796Z,102270.41
2023-02-02T07:44:04.884Z,102312.22
2023-02-02T07:46:31.964Z,102309.50
2023-02-02T07:48:58.787Z,102291.97
2023-02-02T07:51:25.956Z,102296.72
2023-02-02T07:53:54.441Z,102299.91
2023-02-02T07:56:24.363Z,102315.75
2023-02-02T07:58:57.217Z,102293.59
2023-02-02T08:01:26.236Z,102310.06
2023-02-02T08:03:54.071Z,102300.38
2023-02-02T08:06:29.849Z,102323.28
2023-02-02T08:08:59.699Z,102327.75
2023-02-02T08:11:27.875Z,102256.50
2023-02-02T08:13:57.443Z,102303.38
2023-02-02T08:16:25.490Z,102305.53
2023-02-02T08:18:57.601Z,102331.69
2023-02-02T08:21:24.694Z,102334.41
2023-02-02T08:23:53.133Z,102339.66
2023-02-02T08:26:22.159Z,102327.81
2023-02-02T08:28:52.925Z,102336.63
2023-02-02T08:31:25.682Z,102325.84
2023-02-02T08:33:54.085Z,102322.56
2023-02-02T08:36:22.956Z,102344.41
2023-02-02T08:38:50.248Z,102339.06
2023-02-02T08:41:19.839Z,102359.97
2023-02-02T08:43:46.964Z,102364.41
2023-02-02T08:46:17.941Z,102364.31
2023-02-02T08:48:45.348Z,102378.78
2023-02-02T08:51:18.457Z,102350.34
2023-02-02T08:53:46.422Z,102383.06
2023-02-02T08:56:21.610Z,102364.03
2023-02-02T08:58:55.374Z,102387.44
2023-02-02T09:01:28.759Z,102372.88
2023-02-02T09:03:59.625Z,102393.66
2023-02-02T09:06:32.938Z,102417.94
2023-02-02T09:09:00.224Z,102392.53
2023-02-02T09:11:29.279Z,102418.59
2023-02-02T09:13:58.753Z,102413.81
2023-02-02T09:16:26.798Z,102411.66
2023-02-02T09:18:54.680Z,102417.00
2023-02-02T09:21:21.596Z,102405.56
2023-02-02T09:23:49.523Z,102392.34
2023-02-02T09:26:28.149Z,102419.22
2023-02-02T09:29:02.488Z,102420.69
2023-02-02T09:31:31.159Z,102424.06
2023-02-02T09:34:04.347Z,102434.22
2023-02-02T09:36:31.602Z,102432.97
2023-02-02T09:38:58.484Z,102434.19
2023-02-02T09:41:37.329Z,102443.59
2023-02-02T09:44:19.121Z,102434.75
2023-02-02T09:46:50.395Z,102449.94
2023-02-02T09:49:38.294Z,102445.13
2023-02-02T09:52:16.419Z,102454.31
2023-02-02T09:54:48.750Z,102403.84
2023-02-02T09:57:20.981Z,102465.63
2023-02-02T09:59:50.785Z,102449.91
2023-02-02T10:02:40.066Z,102465.19
2023-02-02T10:05:13.931Z,102460.16
2023-02-02T10:07:45.931Z,102462.78
2023-02-02T10:10:18.090Z,102477.16
2023-02-02T10:12:49.717Z,102460.81
2023-02-02T10:15:38.506Z,102461.47
2023-02-02T10:18:06.225Z,102463.00
2023-02-02T10:20:46.531Z,102471.75
2023-02-02T10:23:29.001Z,102468.81
2023-02-02T10:26:01.426Z,102468.16
2023-02-02T10:28:56.616Z,102466.72
2023-02-02T10:32:00.448Z,102466.09
2023-02-02T10:34:39.833Z,102472.19
2023-02-02T10:37:12.546Z,102472.75
2023-02-02T10:40:06.951Z,102476.13
2023-02-02T10:42:38.132Z,102478.94
2023-02-02T10:45:20.402Z,102467.81
2023-02-02T10:47:47.300Z,102467.16
2023-02-02T10:50:13.847Z,102484.41
2023-02-02T10:52:55.110Z,102498.19
2023-02-02T10:55:46.808Z,102490.31
2023-02-02T10:58:13.308Z,102499.56
2023-02-02T11:00:43.640Z,102427.97
2023-02-02T11:03:12.333Z,102488.78
2023-02-02T11:05:57.544Z,102491.94
2023-02-02T11:08:40.116Z,102498.59
2023-02-02T11:11:22.696Z,102483.28
2023-02-02T11:14:03.678Z,102488.13
2023-02-02T11:16:42.244Z,102491.59
2023-02-02T11:19:30.639Z,102486.03
2023-02-02T11:21:59.784Z,102488.88
2023-02-02T11:24:36.528Z,102492.03
2023-02-02T11:27:15.244Z,102478.53
2023-02-02T11:29:59.525Z,102467.94
2023-02-02T11:32:28.958Z,102486.53
2023-02-02T11:35:07.170Z,102493.75
2023-02-02T11:37:36.172Z,102447.34
2023-02-02T11:40:30.009Z,102487.50
2023-02-02T11:42:59.109Z,102490.38
2023-02-02T11:45:45.848Z,102491.66
2023-02-02T11:48:27.060Z,102479.63
2023-02-02T11:50:56.769Z,102483.97
2023-02-02T11:53:31.219Z,102480.59
2023-02-02T11:56:07.652Z,102460.44
2023-02-02T11:58:43.490Z,102481.03
2023-02-02T12:01:22.499Z,102483.53
2023-02-02T12:03:49.853Z,102429.28
2023-02-02T12:06:28.739Z,102474.41
2023-02-02T12:09:02.760Z,102472.53
2023-02-02T12:11:40.852Z,102487.03
2023-02-02T12:14:31.942Z,102478.94
2023-02-02T12:17:06.987Z,102488.03
2023-02-02T12:19:50.484Z,102484.41
2023-02-02T12:22:32.130Z,102484.53
2023-02-02T12:25:28.441Z,102488.91
2023-02-02T12:28:03.638Z,102485.31
2023-02-02T12:30:55.779Z,102475.47
2023-02-02T12:33:52.036Z,102485.94
2023-02-02T12:36:35.027Z,102330.88
2023-02-02T12:39:07.721Z,102480.47
2023-02-02T12:42:12.182Z,102479.19
2023-02-02T12:45:06.434Z,102472.63
2023-02-02T12:47:44.320Z,102472.41
2023-02-02T12:50:49.512Z,102460.66
2023-02-02T12:53:38.290Z,102470.91
2023-02-02T12:56:13.698Z,102451.69
2023-02-02T12:59:00.353Z,102452.66
2023-02-02T13:02:01.893Z,102468.41
2023-02-02T13:08:02.610Z,102394.84
2023-02-02T13:10:42.844Z,102444.16
2023-02-02T13:13:14.906Z,102473.28
2023-02-02T13:15:48.782Z,102455.47
2023-02-02T13:18:27.260Z,102465.22
2023-02-02T13:21:07.702Z,102470.66
2023-02-02T13:23:40.480Z,102465.41
2023-02-02T13:26:15.570Z,102451.66
2023-02-02T13:29:05.460Z,102462.13
2023-02-02T13:31:42.660Z,102471.19
2023-02-02T13:34:23.715Z,102474.22
2023-02-02T13:37:01.931Z,102444.53
2023-02-02T13:39:42.090Z,102473.78
2023-02-02T13:42:22.640Z,102466.56
2023-02-02T13:45:07.304Z,102460.91
2023-02-02T13:47:45.560Z,102463.75
2023-02-02T13:50:19.796Z,102462.78
2023-02-02T13:53:05.548Z,102461.00
2023-02-02T13:56:09.463Z,102460.16
2023-02-02T13:58:51.306Z,102465.72
2023-02-02T14:01:19.355Z,102464.72
2023-02-02T14:03:56.621Z,102464.72
2023-02-02T14:06:26.271Z,102456.44
2023-02-02T14:08:55.639Z,102466.25
2023-02-02T14:11:32.859Z,102469.94
2023-02-02T14:14:33.366Z,102477.91
2023-02-02T14:17:28.575Z,102486.31
2023-02-02T14:19:57.349Z,102492.19
2023-02-02T14:22:42.983Z,102483.44
2023-02-02T14:25:33.554Z,102482.88
2023-02-02T14:28:02.380Z,102488.53
2023-02-02T14:30:38.855Z,102491.25
2023-02-02T14:33:20.882Z,102498.56
2023-02-02T14:35:47.395Z,102496.06
2023-02-02T14:38:36.459Z,102485.34
2023-02-02T14:42:00.813Z,102495.69
2023-02-02T14:44:31.239Z,102497.75
2023-02-02T14:47:02.404Z,102489.69
2023-02-02T14:49:35.567Z,102499.81
2023-02-02T14:52:05.813Z,102487.78
2023-02-02T14:54:38.708Z,102499.56
2023-02-02T14:57:22.377Z,102502.75
2023-02-02T14:59:50.260Z,102501.75
2023-02-02T15:02:34.752Z,102495.19
2023-02-02T15:05:39.701Z,102501.09
2023-02-02T15:08:26.668Z,102504.78
2023-02-02T15:11:25.556Z,102513.19
2023-02-02T15:14:06.956Z,102451.22
2023-02-02T15:16:37.678Z,102507.94
2023-02-02T15:19:18.623Z,102489.97
2023-02-02T15:21:49.264Z,102506.75
2023-02-02T15:24:21.559Z,102512.78
2023-02-02T15:26:54.675Z,102502.03
2023-02-02T15:29:47.350Z,102489.88
2023-02-02T15:32:18.054Z,102515.63
2023-02-02T15:34:49.308Z,102511.16
2023-02-02T15:37:20.696Z,102512.22
2023-02-02T15:39:52.115Z,102513.97
2023-02-02T15:42:46.989Z,102511.25
2023-02-02T15:45:38.179Z,102506.88
2023-02-02T15:48:18.774Z,102520.28
2023-02-02T15:50:47.277Z,102504.66
2023-02-02T15:53:20.745Z,102524.00
2023-02-02T15:55:47.348Z,102499.81
2023-02-02T15:58:34.345Z,102531.47
2023-02-02T16:01:07.055Z,102536.16
2023-02-02T16:04:15.074Z,102536.25
2023-02-02T16:06:43.142Z,102535.56
2023-02-02T16:09:28.787Z,102547.34
2023-02-02T16:11:55.637Z,102551.91
2023-02-02T16:14:23.734Z,102518.59
2023-02-02T16:16:52.828Z,102543.94
2023-02-02T16:19:27.654Z,102528.63
2023-02-02T16:21:58.655Z,102535.59
2023-02-02T16:24:29.157Z,102555.03
2023-02-02T16:26:59.220Z,102556.88
2023-02-02T16:29:29.452Z,102544.53
2023-02-02T16:31:56.576Z,102546.47
2023-02-02T16:34:41.507Z,102564.19
2023-02-02T16:37:22.472Z,102569.72
2023-02-02T16:39:49.701Z,102569.81
2023-02-02T16:42:23.973Z,102575.06
2023-02-02T16:44:50.651Z,102570.59
2023-02-02T16:47:30.607Z,102590.50
2023-02-02T16:50:02.982Z,102593.13
2023-02-02T16:52:29.592Z,102595.88
2023-02-02T16:54:57.384Z,102574.56
2023-02-02T16:57:30.478Z,102592.09
2023-02-02T17:00:01.610Z,102545.22
2023-02-02T17:02:38.936Z,102567.59
2023-02-02T17:05:05.708Z,102602.06
2023-02-02T17:07:36.772Z,102593.13
2023-02-02T17:10:14.752Z,102591.50
2023-02-02T17:12:41.428Z,102554.84
2023-02-02T17:15:17.015Z,102597.53
2023-02-02T17:17:45.368Z,102597.63
2023-02-02T17:20:13.107Z,102603.84
2023-02-02T17:22:43.122Z,102596.53
2023-02-02T17:25:25.201Z,102595.88
2023-02-02T17:27:53.489Z,102613.78
2023-02-02T17:30:20.889Z,102603.84
2023-02-02T17:32:47.610Z,102598.00
2023-02-02T17:35:21.111Z,102614.63
2023-02-02T17:37:48.298Z,102616.41
2023-02-02T17:40:16.519Z,102611.81
2023-02-02T17:42:51.237Z,102614.53
2023-02-02T17:45:23.676Z,102579.53
2023-02-02T17:47:51.513Z,102611.81
2023-02-02T17:50:18.598Z,102617.25
2023-02-02T17:52:46.198Z,102612.97
2023-02-02T17:55:20.717Z,102614.72
2023-02-02T17:57:53.921Z,102619.13
2023-02-02T18:00:23.241Z,102619.97
2023-02-02T18:02:52.100Z,102591.97
2023-02-02T18:05:19.075Z,102620.75
2023-02-02T18:07:47.875Z,102609.00
2023-02-02T18:10:19.260Z,102610.75
2023-02-02T18:12:45.872Z,102606.19
2023-02-02T18:15:14.812Z,102600.72
2023-02-02T18:17:44.232Z,102598.97
2023-02-02T18:20:15.177Z,102598.88
2023-02-02T18:22:47.708Z,102576.81
2023-02-02T18:25:15.035Z,102588.97
2023-02-02T18:27:41.661Z,102583.63
2023-02-02T18:30:08.971Z,102578.38
2023-02-02T18:32:39.983Z,102556.41
2023-02-02T18:35:10.540Z,102574.75
2023-02-02T18:37:37.677Z,102589.66
2023-02-02T18:40:07.986Z,102465.25
2023-02-02T18:42:36.343Z,102587.59
2023-02-02T18:45:04.801Z,102585.63
2023-02-02T18:47:31.415Z,102581.00
2023-02-02T18:50:00.858Z,102580.84
2023-02-02T18:52:31.032Z,102575.66
2023-02-02T18:54:57.560Z,102583.72
2023-02-02T18:57:24.220Z,102558.78
2023-02-02T18:59:52.690Z,102583.59
2023-02-02T19:02:19.889Z,102571.94
2023-02-02T19:05:04.681Z,102567.66
2023-02-02T19:07:50.659Z,102579.03
2023-02-02T19:10:18.227Z,102583.38
2023-02-02T19:13:02.455Z,102565.25
2023-02-02T19:15:31.759Z,102569.97
2023-02-02T19:17:58.329Z,102590.03
2023-02-02T19:20:27.905Z,102588.06
2023-02-02T19:23:06.982Z,102579.91
2023-02-02T19:25:33.659Z,102587.22
2023-02-02T19:28:09.088Z,102554.25
2023-02-02T19:30:35.668Z,102572.91
2023-02-02T19:33:02.427Z,102572.22
2023-02-02T19:35:29.480Z,102546.00
2023-02-02T19:38:01.809Z,102509.75
2023-02-02T19:40:28.788Z,102566.69
2023-02-02T19:43:10.358Z,102556.41
2023-02-02T19:45:37.759Z,102568.53
2023-02-02T19:48:35.407Z,102565.91
2023-02-02T19:51:27.900Z,102564.38
2023-02-02T19:53:59.189Z,102552.50
2023-02-02T19:56:36.180Z,102549.97
2023-02-02T19:59:02.851Z,102571.34
2023-02-02T20:01:34.717Z,102579.53
2023-02-02T20:04:04.061Z,102580.53
2023-02-02T20:06:38.741Z,102544.56
2023-02-02T20:09:18.222Z,102538.59
2023-02-02T20:11:47.347Z,102583.44
2023-02-02T20:14:18.533Z,102578.66
2023-02-02T20:16:51.162Z,102580.19
2023-02-02T20:19:21.715Z,102582.63
2023-02-02T20:21:52.298Z,102564.84
2023-02-02T20:24:40.319Z,102572.53
2023-02-02T20:27:25.394Z,102588.56
2023-02-02T20:29:54.158Z,102584.88
2023-02-02T20:32:29.259Z,102587.69
2023-02-02T20:34:59.330Z,102591.88
2023-02-02T20:37:32.348Z,102597.34
2023-02-02T20:40:03.361Z,102607.13
2023-02-02T20:42:30.360Z,102605.19
2023-02-02T20:44:58.201Z,102591.88
2023-02-02T20:47:25.252Z,102605.88
2023-02-02T20:49:54.327Z,102589.25
2023-02-02T20:52:24.120Z,102601.50
2023-02-02T20:54:51.649Z,102600.34
2023-02-02T20:57:18.776Z,102604.69
2023-02-02T20:59:45.365Z,102589.34
2023-02-02T21:02:19.658Z,102599.81
2023-02-02T21:04:47.701Z,102601.59
2023-02-02T21:07:19.631Z,102605.28
2023-02-02T21:09:48.624Z,102598.88
2023-02-02T21:12:16.007Z,102587.50
2023-02-02T21:14:44.914Z,102615.78
2023-02-02T21:17:15.252Z,102600.72
2023-02-02T21:19:45.823Z,102595.94
2023-02-02T21:22:15.144Z,102604.69
2023-02-02T21:24:42.620Z,102605.56
2023-02-02T21:27:10.067Z,102611.00
2023-02-02T21:29:36.895Z,102613.63
2023-02-02T21:32:04.175Z,102616.34
2023-02-02T21:34:31.905Z,102584.19
2023-02-02T21:37:01.169Z,102626.38
2023-02-02T21:39:32.626Z,102491.75
2023-02-02T21:42:08.420Z,102615.19
2023-02-02T21:44:49.711Z,102599.34
2023-02-02T21:47:45.407Z,102607.13
2023-02-02T21:50:16.154Z,102605.34
2023-02-02T21:52:43.245Z,102597.19
2023-02-02T21:55:33.625Z,102519.34
2023-02-02T21:58:11.523Z,102594.47
2023-02-02T22:00:38.121Z,102593.50
2023-02-02T22:03:24.782Z,102577.84
2023-02-02T22:05:53.714Z,102598.84
2023-02-02T22:08:26.771Z,102593.50
2023-02-02T22:10:53.333Z,102583.09
2023-02-02T22:13:24.869Z,102592.53
2023-02-02T22:15:53.414Z,102614.34
2023-02-02T22:18:26.240Z,102598.28
2023-02-02T22:20:56.421Z,102590.78
2023-02-02T22:23:28.239Z,102595.47
2023-02-02T22:25:57.774Z,102579.41
2023-02-02T22:28:27.252Z,102576.59
2023-02-02T22:30:59.839Z,102589.00
2023-02-02T22:33:26.802Z,102587.19
2023-02-02T22:35:55.944Z,102589.00
2023-02-02T22:38:24.661Z,102587.28
2023-02-02T22:40:54.802Z,102595.38
2023-02-02T22:43:21.993Z,102579.03
2023-02-02T22:45:49.219Z,102595.25
2023-02-02T22:48:16.696Z,102597.97
2023-02-02T22:50:43.384Z,102601.69
2023-02-02T22:53:15.497Z,102583.75
2023-02-02T22:55:43.439Z,102568.50
2023-02-02T22:58:12.294Z,102575.81
2023-02-02T23:00:38.876Z,102602.53
2023-02-02T23:03:05.533Z,102590.78
2023-02-02T23:05:32.332Z,102580.84
2023-02-02T23:07:58.890Z,102587.97
2023-02-02T23:10:27.746Z,102563.53
2023-02-02T23:12:56.001Z,102565.31
2023-02-02T23:15:22.712Z,102572.56
2023-02-02T23:17:49.771Z,102558.84
2023-02-02T23:20:17.342Z,102555.06
2023-02-02T23:22:44.010Z,102547.00
2023-02-02T23:25:12.160Z,102534.25
2023-02-02T23:27:39.431Z,102519.75
2023-02-02T23:30:07.675Z,102453.91
2023-02-02T23:32:34.724Z,102518.88
2023-02-02T23:35:01.458Z,102518.00
2023-02-02T23:37:30.367Z,102522.56
2023-02-02T23:39:56.920Z,102522.56
2023-02-02T23:42:23.505Z,102520.16
2023-02-02T23:44:50.083Z,102528.44
2023-02-02T23:47:16.767Z,102526.91
2023-02-02T23:49:44.078Z,102531.81
2023-02-02T23:52:10.822Z,102527.38
2023-02-02T23:54:37.629Z,102523.63
2023-02-02T23:57:04.419Z,102522.13
2023-02-02T23:59:30.962Z,102532.72
